createdAt,value
2022-12-29T00:00:15.685Z,-0.56
2022-12-29T00:01:15.598Z,-0.56
2022-12-29T00:02:16.768Z,-0.57
2022-12-29T00:03:16.291Z,-0.56
2022-12-29T00:04:16.965Z,-0.55
2022-12-29T00:05:17.135Z,-0.51
2022-12-29T00:06:17.343Z,-0.54
2022-12-29T00:07:18.543Z,-0.54
2022-12-29T00:08:17.973Z,-0.58
2022-12-29T00:09:18.416Z,-0.57
2022-12-29T00:10:18.710Z,-0.54
2022-12-29T00:11:25.103Z,-0.56
2022-12-29T00:12:22.636Z,-0.57
2022-12-29T00:13:22.821Z,-0.57
2022-12-29T00:14:26.147Z,-0.54
2022-12-29T00:15:23.887Z,-0.57
2022-12-29T00:16:24.393Z,-0.55
2022-12-29T00:17:24.598Z,-0.53
2022-12-29T00:18:24.908Z,-0.54
2022-12-29T00:19:25.488Z,-0.55
2022-12-29T00:20:25.751Z,-0.57
2022-12-29T00:21:26.978Z,-0.6
2022-12-29T00:22:26.562Z,-0.58
2022-12-29T00:23:26.680Z,-0.57
2022-12-29T00:24:26.900Z,-0.55
2022-12-29T00:25:27.378Z,-0.57
2022-12-29T00:26:27.625Z,-0.56
2022-12-29T00:27:29.606Z,-0.54
2022-12-29T00:28:28.497Z,-0.55
2022-12-29T00:29:29.188Z,-0.57
2022-12-29T00:30:29.077Z,-0.58
2022-12-29T00:31:29.444Z,-0.58
2022-12-29T00:32:29.828Z,-0.55
2022-12-29T00:33:32.066Z,-0.59
2022-12-29T00:34:30.653Z,-0.57
2022-12-29T00:36:40.324Z,-0.6
2022-12-29T00:38:42.129Z,-0.59
2022-12-29T00:39:39.782Z,-0.56
2022-12-29T00:40:39.992Z,-0.54
2022-12-29T00:41:40.712Z,-0.55
2022-12-29T00:42:40.731Z,-0.57
2022-12-29T00:43:41.016Z,-0.56
2022-12-29T00:44:41.555Z,-0.55
2022-12-29T00:45:42.868Z,-0.52
2022-12-29T00:46:43.963Z,-0.53
2022-12-29T00:47:42.402Z,-0.54
2022-12-29T00:48:42.819Z,-0.52
2022-12-29T00:49:43.127Z,-0.55
2022-12-29T00:50:43.444Z,-0.56
2022-12-29T00:51:44.056Z,-0.56
2022-12-29T00:52:44.271Z,-0.57
2022-12-29T00:53:44.501Z,-0.56
2022-12-29T00:54:44.953Z,-0.59
2022-12-29T00:55:45.503Z,-0.58
2022-12-29T00:56:50.613Z,-0.61
2022-12-29T00:57:48.096Z,-0.62
2022-12-29T00:58:48.200Z,-0.6
2022-12-29T00:59:48.641Z,-0.57
2022-12-29T01:00:48.965Z,-0.56
2022-12-29T01:01:49.856Z,-0.58
2022-12-29T01:02:49.994Z,-0.55
2022-12-29T01:03:50.084Z,-0.55
2022-12-29T01:04:50.393Z,-0.55
2022-12-29T01:05:50.709Z,-0.55
2022-12-29T01:06:51.758Z,-0.58
2022-12-29T01:07:51.340Z,-0.59
2022-12-29T01:08:52.619Z,-0.57
2022-12-29T01:09:52.245Z,-0.6
2022-12-29T01:11:56.284Z,-0.61
2022-12-29T01:12:56.596Z,-0.61
2022-12-29T01:13:56.705Z,-0.61
2022-12-29T01:14:57.017Z,-0.59
2022-12-29T01:15:57.599Z,-0.57
2022-12-29T01:16:58.243Z,-0.58
2022-12-29T01:17:58.366Z,-0.59
2022-12-29T01:18:58.467Z,-0.59
2022-12-29T01:19:58.904Z,-0.56
2022-12-29T01:21:03.608Z,-0.54
2022-12-29T01:22:01.498Z,-0.58
2022-12-29T01:23:01.590Z,-0.57
2022-12-29T01:24:01.778Z,-0.56
2022-12-29T01:25:02.310Z,-0.55
2022-12-29T01:27:04.598Z,-0.59
2022-12-29T01:28:05.388Z,-0.57
2022-12-29T01:29:05.094Z,-0.55
2022-12-29T01:30:06.741Z,-0.54
2022-12-29T01:31:05.900Z,-0.54
2022-12-29T01:32:06.341Z,-0.55
2022-12-29T01:33:06.554Z,-0.58
2022-12-29T01:34:07.483Z,-0.55
2022-12-29T01:35:08.005Z,-0.55
2022-12-29T01:36:10.770Z,-0.56
2022-12-29T01:37:08.533Z,-0.55
2022-12-29T01:38:08.526Z,-0.54
2022-12-29T01:39:08.924Z,-0.57
2022-12-29T01:40:10.717Z,-0.58
2022-12-29T01:41:11.509Z,-0.54
2022-12-29T01:43:15.418Z,-0.55
2022-12-29T01:45:20.467Z,-0.54
2022-12-29T01:48:27.022Z,-0.59
2022-12-29T01:49:29.384Z,-0.62
2022-12-29T01:50:33.905Z,-0.59
2022-12-29T01:51:34.223Z,-0.6
2022-12-29T01:52:35.149Z,-0.59
2022-12-29T01:53:35.763Z,-0.58
2022-12-29T01:54:44.379Z,-0.56
2022-12-29T01:55:43.903Z,-0.54
2022-12-29T01:56:41.829Z,-0.57
2022-12-29T01:57:45.117Z,-0.58
2022-12-29T01:58:46.237Z,-0.55
2022-12-29T01:59:51.798Z,-0.57
2022-12-29T02:00:44.422Z,-0.53
2022-12-29T02:01:45.222Z,-0.51
2022-12-29T02:02:52.033Z,-0.55
2022-12-29T02:03:51.217Z,-0.56
2022-12-29T02:04:50.106Z,-0.54
2022-12-29T02:05:57.555Z,-0.52
2022-12-29T02:07:00.759Z,-0.51
2022-12-29T02:07:58.829Z,-0.53
2022-12-29T02:08:59.940Z,-0.55
2022-12-29T02:10:01.227Z,-0.55
2022-12-29T02:11:01.814Z,-0.53
2022-12-29T02:12:00.665Z,-0.5
2022-12-29T02:12:59.965Z,-0.49
2022-12-29T02:14:03.594Z,-0.48
2022-12-29T02:15:03.467Z,-0.48
2022-12-29T02:53:49.283Z,-0.49
2022-12-29T02:54:50.605Z,-0.49
2022-12-29T02:55:50.825Z,-0.5
2022-12-29T02:56:49.600Z,-0.52
2022-12-29T02:57:50.219Z,-0.52
2022-12-29T02:58:50.235Z,-0.5
2022-12-29T03:00:02.467Z,-0.5
2022-12-29T03:15:44.976Z,-0.55
2022-12-29T03:16:46.238Z,-0.51
2022-12-29T03:19:52.855Z,-0.53
2022-12-29T03:20:56.002Z,-0.51
2022-12-29T03:23:51.196Z,-0.56
2022-12-29T03:24:54.179Z,-0.53
2022-12-29T03:26:58.192Z,-0.53
2022-12-29T03:28:58.447Z,-0.53
2022-12-29T03:31:01.531Z,-0.55
2022-12-29T03:32:02.868Z,-0.51
2022-12-29T03:34:06.490Z,-0.48
2022-12-29T03:35:06.655Z,-0.48
2022-12-29T03:36:08.493Z,-0.48
2022-12-29T03:39:15.045Z,-0.5
2022-12-29T03:40:14.042Z,-0.51
2022-12-29T03:43:20.263Z,-0.47
2022-12-29T03:44:20.116Z,-0.45
2022-12-29T03:45:21.036Z,-0.46
2022-12-29T03:46:20.981Z,-0.51
2022-12-29T03:47:21.248Z,-0.49
2022-12-29T03:48:21.469Z,-0.5
2022-12-29T03:49:22.024Z,-0.52
2022-12-29T03:50:22.507Z,-0.5
2022-12-29T03:51:22.416Z,-0.52
2022-12-29T03:52:22.803Z,-0.5
2022-12-29T03:53:23.148Z,-0.49
2022-12-29T03:54:23.567Z,-0.5
2022-12-29T03:55:23.963Z,-0.48
2022-12-29T03:56:24.397Z,-0.47
2022-12-29T03:57:24.493Z,-0.5
2022-12-29T03:58:24.922Z,-0.47
2022-12-29T03:59:25.416Z,-0.48
2022-12-29T04:00:25.644Z,-0.49
2022-12-29T04:01:26.081Z,-0.48
2022-12-29T04:02:26.607Z,-0.47
2022-12-29T04:03:26.576Z,-0.5
2022-12-29T04:04:26.798Z,-0.51
2022-12-29T04:05:27.654Z,-0.49
2022-12-29T04:06:27.713Z,-0.49
2022-12-29T04:07:28.045Z,-0.49
2022-12-29T04:08:28.471Z,-0.54
2022-12-29T04:09:28.685Z,-0.55
2022-12-29T04:10:28.983Z,-0.53
2022-12-29T04:11:33.085Z,-0.53
2022-12-29T04:12:30.737Z,-0.51
2022-12-29T04:13:31.056Z,-0.51
2022-12-29T04:14:31.463Z,-0.51
2022-12-29T04:15:31.868Z,-0.51
2022-12-29T04:16:32.214Z,-0.55
2022-12-29T04:17:32.453Z,-0.53
2022-12-29T04:18:32.941Z,-0.56
2022-12-29T04:19:33.141Z,-0.57
2022-12-29T04:20:33.664Z,-0.56
2022-12-29T04:21:33.937Z,-0.55
2022-12-29T04:22:34.191Z,-0.52
2022-12-29T04:23:38.079Z,-0.5
2022-12-29T04:24:35.333Z,-0.5
2022-12-29T04:25:35.864Z,-0.51
2022-12-29T04:26:36.117Z,-0.5
2022-12-29T04:27:36.378Z,-0.52
2022-12-29T04:28:37.479Z,-0.53
2022-12-29T04:29:37.159Z,-0.5
2022-12-29T04:30:37.619Z,-0.51
2022-12-29T04:31:37.853Z,-0.48
2022-12-29T04:32:38.109Z,-0.47
2022-12-29T04:33:38.561Z,-0.47
2022-12-29T04:34:38.885Z,-0.47
2022-12-29T04:35:39.192Z,-0.49
2022-12-29T04:36:40.007Z,-0.49
2022-12-29T04:37:40.030Z,-0.49
2022-12-29T04:38:40.448Z,-0.5
2022-12-29T04:39:40.722Z,-0.54
2022-12-29T04:40:41.789Z,-0.51
2022-12-29T04:41:41.268Z,-0.5
2022-12-29T04:42:41.692Z,-0.48
2022-12-29T04:43:41.897Z,-0.49
2022-12-29T04:44:45.247Z,-0.48
2022-12-29T04:46:45.614Z,-0.54
2022-12-29T04:47:45.931Z,-0.5
2022-12-29T04:48:46.772Z,-0.47
2022-12-29T04:49:46.660Z,-0.52
2022-12-29T04:50:50.140Z,-0.54
2022-12-29T04:51:47.493Z,-0.52
2022-12-29T04:52:47.916Z,-0.51
2022-12-29T04:53:48.323Z,-0.48
2022-12-29T04:54:48.430Z,-0.5
2022-12-29T04:56:50.492Z,-0.5
2022-12-29T04:57:50.691Z,-0.52
2022-12-29T04:58:51.183Z,-0.51
2022-12-29T04:59:51.642Z,-0.51
2022-12-29T05:00:52.588Z,-0.53
2022-12-29T05:01:52.380Z,-0.46
2022-12-29T05:02:52.743Z,-0.47
2022-12-29T05:03:52.948Z,-0.49
2022-12-29T05:04:53.310Z,-0.54
2022-12-29T05:05:57.218Z,-0.53
2022-12-29T05:06:54.541Z,-0.5
2022-12-29T05:07:54.956Z,-0.5
2022-12-29T05:08:55.479Z,-0.49
2022-12-29T05:09:55.700Z,-0.5
2022-12-29T05:10:56.016Z,-0.51
2022-12-29T05:11:56.429Z,-0.49
2022-12-29T05:12:56.768Z,-0.47
2022-12-29T05:13:57.020Z,-0.48
2022-12-29T05:14:57.366Z,-0.48
2022-12-29T05:15:57.802Z,-0.47
2022-12-29T05:16:58.140Z,-0.48
2022-12-29T05:17:58.305Z,-0.43
2022-12-29T05:18:58.838Z,-0.5
2022-12-29T05:19:59.052Z,-0.45
2022-12-29T05:20:59.475Z,-0.51
2022-12-29T05:21:59.884Z,-0.5
2022-12-29T05:23:00.195Z,-0.47
2022-12-29T05:24:00.500Z,-0.49
2022-12-29T05:25:01.021Z,-0.51
2022-12-29T05:26:01.219Z,-0.47
2022-12-29T05:27:01.642Z,-0.46
2022-12-29T05:28:01.753Z,-0.47
2022-12-29T05:29:02.379Z,-0.48
2022-12-29T05:30:02.896Z,-0.52
2022-12-29T05:31:02.964Z,-0.49
2022-12-29T05:32:03.203Z,-0.49
2022-12-29T05:33:03.834Z,-0.5
2022-12-29T05:34:06.569Z,-0.48
2022-12-29T05:35:04.887Z,-0.45
2022-12-29T05:37:06.315Z,-0.44
2022-12-29T05:38:06.501Z,-0.41
2022-12-29T05:39:07.039Z,-0.43
2022-12-29T05:40:08.791Z,-0.46
2022-12-29T05:41:07.682Z,-0.48
2022-12-29T05:42:07.992Z,-0.48
2022-12-29T05:43:08.194Z,-0.5
2022-12-29T05:44:08.619Z,-0.5
2022-12-29T05:45:10.053Z,-0.49
2022-12-29T05:46:09.543Z,-0.47
2022-12-29T05:47:09.850Z,-0.49
2022-12-29T05:48:09.984Z,-0.51
2022-12-29T05:49:10.494Z,-0.52
2022-12-29T05:50:10.809Z,-0.52
2022-12-29T05:51:11.124Z,-0.5
2022-12-29T05:52:11.431Z,-0.5
2022-12-29T05:53:11.852Z,-0.43
2022-12-29T05:54:12.158Z,-0.43
2022-12-29T05:55:13.190Z,-0.5
2022-12-29T05:56:13.011Z,-0.5
2022-12-29T05:57:13.183Z,-0.48
2022-12-29T05:58:13.621Z,-0.5
2022-12-29T05:59:13.884Z,-0.51
2022-12-29T06:00:15.327Z,-0.51
2022-12-29T06:01:14.580Z,-0.48
2022-12-29T06:02:15.218Z,-0.52
2022-12-29T06:03:15.475Z,-0.53
2022-12-29T06:04:15.591Z,-0.51
2022-12-29T06:05:16.125Z,-0.49
2022-12-29T06:06:16.432Z,-0.47
2022-12-29T06:07:16.645Z,-0.49
2022-12-29T06:08:16.960Z,-0.48
2022-12-29T06:09:17.279Z,-0.5
2022-12-29T06:10:18.213Z,-0.5
2022-12-29T06:11:18.116Z,-0.5
2022-12-29T06:12:18.319Z,-0.48
2022-12-29T06:13:18.733Z,-0.48
2022-12-29T06:14:18.947Z,-0.49
2022-12-29T06:15:19.383Z,-0.47
2022-12-29T06:16:19.831Z,-0.46
2022-12-29T06:17:20.013Z,-0.47
2022-12-29T06:18:20.671Z,-0.44
2022-12-29T06:19:20.823Z,-0.43
2022-12-29T06:20:21.175Z,-0.43
2022-12-29T06:21:21.547Z,-0.43
2022-12-29T06:22:21.973Z,-0.5
2022-12-29T06:23:22.076Z,-0.5
2022-12-29T06:24:22.807Z,-0.49
2022-12-29T06:25:22.936Z,-0.46
2022-12-29T06:26:23.125Z,-0.46
2022-12-29T06:27:23.763Z,-0.43
2022-12-29T06:28:24.364Z,-0.44
2022-12-29T06:29:24.171Z,-0.47
2022-12-29T06:30:24.886Z,-0.49
2022-12-29T06:31:25.074Z,-0.46
2022-12-29T06:32:25.379Z,-0.48
2022-12-29T06:33:25.632Z,-0.5
2022-12-29T06:34:26.463Z,-0.45
2022-12-29T06:35:26.337Z,-0.47
2022-12-29T06:36:26.783Z,-0.46
2022-12-29T06:37:27.192Z,-0.45
2022-12-29T06:38:27.330Z,-0.48
2022-12-29T06:39:27.739Z,-0.44
2022-12-29T06:40:28.240Z,-0.45
2022-12-29T06:41:32.238Z,-0.42
2022-12-29T06:42:29.988Z,-0.46
2022-12-29T06:43:30.179Z,-0.46
2022-12-29T06:44:30.909Z,-0.47
2022-12-29T06:45:31.084Z,-0.41
2022-12-29T06:46:31.292Z,-0.44
2022-12-29T06:47:31.556Z,-0.42
2022-12-29T06:48:31.881Z,-0.39
2022-12-29T06:49:32.320Z,-0.4
2022-12-29T06:50:32.797Z,-0.41
2022-12-29T06:51:33.011Z,-0.43
2022-12-29T06:52:33.337Z,-0.44
2022-12-29T06:53:33.607Z,-0.45
2022-12-29T06:54:34.262Z,-0.45
2022-12-29T06:55:34.679Z,-0.45
2022-12-29T06:56:34.685Z,-0.43
2022-12-29T06:57:35.101Z,-0.47
2022-12-29T06:58:35.412Z,-0.44
2022-12-29T06:59:35.724Z,-0.42
2022-12-29T07:00:36.251Z,-0.46
2022-12-29T07:01:37.055Z,-0.45
2022-12-29T07:02:36.880Z,-0.48
2022-12-29T07:03:37.146Z,-0.45
2022-12-29T07:04:37.601Z,-0.43
2022-12-29T07:05:37.917Z,-0.43
2022-12-29T07:06:38.150Z,-0.42
2022-12-29T07:07:38.594Z,-0.39
2022-12-29T07:08:38.869Z,-0.37
2022-12-29T07:09:39.380Z,-0.41
2022-12-29T07:10:39.592Z,-0.39
2022-12-29T07:11:39.904Z,-0.36
2022-12-29T07:12:40.527Z,-0.38
2022-12-29T07:13:40.731Z,-0.35
2022-12-29T07:14:43.451Z,-0.37
2022-12-29T07:15:41.466Z,-0.37
2022-12-29T07:16:41.795Z,-0.35
2022-12-29T07:17:42.269Z,-0.41
2022-12-29T07:18:42.409Z,-0.42
2022-12-29T07:19:42.685Z,-0.38
2022-12-29T07:20:43.239Z,-0.38
2022-12-29T07:21:46.019Z,-0.35
2022-12-29T07:22:43.884Z,-0.39
2022-12-29T07:23:44.290Z,-0.42
2022-12-29T07:24:44.491Z,-0.4
2022-12-29T07:25:45.019Z,-0.37
2022-12-29T07:26:45.250Z,-0.38
2022-12-29T07:27:45.637Z,-0.38
2022-12-29T07:28:46.160Z,-0.38
2022-12-29T07:29:46.376Z,-0.38
2022-12-29T07:30:47.396Z,-0.38
2022-12-29T07:31:47.056Z,-0.36
2022-12-29T07:32:47.527Z,-0.36
2022-12-29T07:33:48.343Z,-0.38
2022-12-29T07:34:48.151Z,-0.39
2022-12-29T07:35:48.257Z,-0.38
2022-12-29T07:36:48.671Z,-0.34
2022-12-29T07:37:49.288Z,-0.3
2022-12-29T07:38:49.499Z,-0.32
2022-12-29T07:39:49.819Z,-0.28
2022-12-29T07:40:50.126Z,-0.25
2022-12-29T07:41:50.456Z,-0.25
2022-12-29T07:42:50.969Z,-0.28
2022-12-29T07:43:51.276Z,-0.34
2022-12-29T07:44:51.703Z,-0.36
2022-12-29T07:45:51.941Z,-0.34
2022-12-29T07:46:56.253Z,-0.29
2022-12-29T07:47:54.793Z,-0.32
2022-12-29T07:48:55.201Z,-0.34
2022-12-29T07:49:55.720Z,-0.38
2022-12-29T07:50:56.029Z,-0.35
2022-12-29T07:51:56.154Z,-0.31
2022-12-29T07:52:56.565Z,-0.29
2022-12-29T07:53:56.981Z,-0.29
2022-12-29T07:54:57.321Z,-0.27
2022-12-29T07:55:57.812Z,-0.29
2022-12-29T07:56:58.036Z,-0.28
2022-12-29T07:57:58.546Z,-0.26
2022-12-29T07:58:58.648Z,-0.26
2022-12-29T07:59:59.083Z,-0.23
2022-12-29T08:01:00.192Z,-0.17
2022-12-29T08:02:00.047Z,-0.13
2022-12-29T08:03:00.329Z,-0.21
2022-12-29T08:04:00.458Z,-0.21
2022-12-29T08:05:00.636Z,-0.15
2022-12-29T08:06:01.064Z,-0.19
2022-12-29T08:07:01.389Z,-0.26
2022-12-29T08:08:01.686Z,-0.2
2022-12-29T08:09:09.898Z,-0.17
2022-12-29T08:10:05.369Z,-0.2
2022-12-29T08:11:05.275Z,-0.17
2022-12-29T08:12:06.109Z,-0.25
2022-12-29T08:13:05.801Z,-0.25
2022-12-29T08:14:06.229Z,-0.18
2022-12-29T08:15:08.071Z,-0.12
2022-12-29T08:16:07.308Z,-0.2
2022-12-29T08:17:07.331Z,-0.19
2022-12-29T08:18:07.493Z,-0.21
2022-12-29T08:19:07.883Z,-0.25
2022-12-29T08:20:09.522Z,-0.19
2022-12-29T08:21:08.642Z,-0.21
2022-12-29T08:22:08.939Z,-0.22
2022-12-29T08:23:09.352Z,-0.28
2022-12-29T08:24:09.970Z,-0.27
2022-12-29T08:25:10.068Z,-0.23
2022-12-29T08:26:11.522Z,-0.2
2022-12-29T08:27:18.247Z,-0.22
2022-12-29T08:28:12.551Z,-0.23
2022-12-29T08:29:12.874Z,-0.26
2022-12-29T08:30:14.113Z,-0.2
2022-12-29T08:31:13.629Z,-0.19
2022-12-29T08:32:14.024Z,-0.18
2022-12-29T08:33:14.226Z,-0.2
2022-12-29T08:34:14.858Z,-0.2
2022-12-29T08:35:15.065Z,-0.14
2022-12-29T08:36:15.480Z,-0.15
2022-12-29T08:37:15.697Z,-0.17
2022-12-29T08:38:16.173Z,-0.15
2022-12-29T08:39:17.093Z,-0.16
2022-12-29T08:40:16.937Z,-0.16
2022-12-29T08:41:17.353Z,-0.18
2022-12-29T08:42:17.564Z,-0.18
2022-12-29T08:43:18.670Z,-0.21
2022-12-29T08:44:18.259Z,-0.22
2022-12-29T08:45:18.606Z,-0.21
2022-12-29T08:46:18.918Z,-0.16
2022-12-29T08:47:19.343Z,-0.16
2022-12-29T08:48:19.546Z,-0.17
2022-12-29T08:49:19.869Z,-0.19
2022-12-29T08:50:20.479Z,-0.2
2022-12-29T08:51:24.738Z,-0.2
2022-12-29T08:52:22.668Z,-0.19
2022-12-29T08:53:22.985Z,-0.19
2022-12-29T08:54:23.480Z,-0.14
2022-12-29T08:55:23.806Z,-0.12
2022-12-29T08:56:24.010Z,-0.15
2022-12-29T08:57:24.330Z,-0.13
2022-12-29T08:58:25.009Z,-0.11
2022-12-29T08:59:25.251Z,-0.11
2022-12-29T09:00:25.664Z,-0.15
2022-12-29T09:01:25.877Z,-0.23
2022-12-29T09:02:26.197Z,-0.21
2022-12-29T09:04:03.776Z,-0.19
2022-12-29T09:04:29.789Z,-0.17
2022-12-29T09:05:30.000Z,-0.11
2022-12-29T09:06:32.723Z,-0.14
2022-12-29T09:07:33.804Z,-0.16
2022-12-29T09:08:34.231Z,-0.23
2022-12-29T09:09:34.951Z,-0.24
2022-12-29T09:10:34.950Z,-0.2
2022-12-29T09:11:35.284Z,-0.2
2022-12-29T09:12:36.875Z,-0.18
2022-12-29T09:13:36.000Z,-0.17
2022-12-29T09:14:36.419Z,-0.17
2022-12-29T09:15:36.802Z,-0.21
2022-12-29T09:16:37.638Z,-0.17
2022-12-29T09:17:37.350Z,-0.11
2022-12-29T09:18:38.386Z,-0.12
2022-12-29T09:19:38.192Z,-0.12
2022-12-29T09:20:38.813Z,-0.18
2022-12-29T09:21:38.779Z,-0.15
2022-12-29T09:22:39.539Z,-0.1
2022-12-29T09:23:40.357Z,-0.08
2022-12-29T09:24:39.856Z,-0.13
2022-12-29T09:25:40.273Z,-0.08
2022-12-29T09:26:45.258Z,-0.08
2022-12-29T09:27:44.598Z,-0.05
2022-12-29T09:28:45.013Z,-0.1
2022-12-29T09:29:45.114Z,-0.05
2022-12-29T09:30:45.421Z,-0.07
2022-12-29T09:31:45.875Z,-0.08
2022-12-29T09:32:48.623Z,-0.05
2022-12-29T09:33:49.416Z,-0.06
2022-12-29T09:34:49.752Z,-0.06
2022-12-29T09:36:54.378Z,-0.13
2022-12-29T09:37:56.122Z,-0.1
2022-12-29T09:38:55.320Z,-0.04
2022-12-29T09:39:55.646Z,-0.04
2022-12-29T09:47:12.966Z,-0.11
2022-12-29T09:48:19.235Z,-0.06
2022-12-29T09:51:24.267Z,-0.07
2022-12-29T09:52:28.980Z,-0.06
2022-12-29T09:56:32.764Z,-0.03
2022-12-29T09:59:43.675Z,-0.11
2022-12-29T10:03:52.817Z,-0.07
2022-12-29T10:04:50.255Z,-0.01
2022-12-29T10:24:40.688Z,0.02
2022-12-29T10:25:42.617Z,0.05
2022-12-29T10:26:44.982Z,0.08
2022-12-29T10:27:44.679Z,0.05
2022-12-29T10:30:52.857Z,0.05
2022-12-29T10:44:31.807Z,0.14
2022-12-29T10:45:32.054Z,0.08
2022-12-29T10:46:34.057Z,0.01
2022-12-29T10:47:37.026Z,0.04
2022-12-29T10:48:36.523Z,0.04
2022-12-29T10:49:40.363Z,0.06
2022-12-29T10:50:38.380Z,0.08
2022-12-29T10:51:42.590Z,0.06
2022-12-29T10:52:40.966Z,0.04
2022-12-29T10:53:49.043Z,0.02
2022-12-29T10:55:45.266Z,0.05
2022-12-29T10:56:52.983Z,0.04
2022-12-29T10:57:47.023Z,-0.02
2022-12-29T10:58:50.112Z,-0.01
2022-12-29T10:59:47.545Z,0
2022-12-29T11:00:53.469Z,0
2022-12-29T11:07:07.058Z,0.1
2022-12-29T11:14:30.340Z,0.05
2022-12-29T11:15:27.788Z,0.04
2022-12-29T11:16:34.027Z,0.11
2022-12-29T11:18:40.100Z,0.16
2022-12-29T11:19:41.154Z,0.15
2022-12-29T11:20:40.316Z,0.16
2022-12-29T11:21:40.536Z,0.11
2022-12-29T11:22:45.346Z,0.09
2022-12-29T11:23:43.312Z,0.08
2022-12-29T11:24:47.921Z,0.08
2022-12-29T11:25:45.267Z,0.16
2022-12-29T11:26:46.018Z,0.11
2022-12-29T11:29:55.026Z,0.11
2022-12-29T11:31:01.370Z,0.12
2022-12-29T11:31:58.889Z,0.13
2022-12-29T11:32:57.700Z,0.11
2022-12-29T11:33:56.884Z,0.16
2022-12-29T11:34:58.546Z,0.18
2022-12-29T11:36:05.405Z,0.2
2022-12-29T11:37:07.432Z,0.22
2022-12-29T11:38:01.115Z,0.2
2022-12-29T11:39:00.915Z,0.21
2022-12-29T11:40:05.205Z,0.23
2022-12-29T11:41:04.932Z,0.18
2022-12-29T11:42:04.209Z,0.21
2022-12-29T11:43:04.438Z,0.16
2022-12-29T11:44:07.008Z,0.15
2022-12-29T11:46:15.976Z,0.2
2022-12-29T11:47:13.660Z,0.14
2022-12-29T11:48:21.158Z,0.19
2022-12-29T11:49:20.124Z,0.2
2022-12-29T11:50:26.790Z,0.15
2022-12-29T11:51:25.628Z,0.19
2022-12-29T11:52:26.940Z,0.22
2022-12-29T11:54:37.783Z,0.21
2022-12-29T11:55:31.738Z,0.21
2022-12-29T11:56:42.436Z,0.2
2022-12-29T11:57:36.770Z,0.2
2022-12-29T11:58:39.423Z,0.14
2022-12-29T11:59:43.238Z,0.11
2022-12-29T12:00:40.989Z,0.13
2022-12-29T12:01:41.520Z,0.16
2022-12-29T12:03:55.271Z,0.2
2022-12-29T12:04:52.208Z,0.19
2022-12-29T12:07:58.137Z,0.15
2022-12-29T12:09:06.126Z,0.12
2022-12-29T12:10:08.100Z,0.11
2022-12-29T12:11:10.848Z,0.14
2022-12-29T12:12:06.252Z,0.17
2022-12-29T12:13:12.399Z,0.13
2022-12-29T12:15:17.553Z,0.1
2022-12-29T12:16:16.309Z,0.09
2022-12-29T12:17:19.191Z,0.06
2022-12-29T12:33:58.847Z,0.11
2022-12-29T12:34:56.991Z,0.12
2022-12-29T13:30:23.150Z,-0.09
2022-12-29T13:36:38.802Z,-0.07
2022-12-29T13:37:35.289Z,-0.04
2022-12-29T13:39:44.211Z,-0.12
2022-12-29T13:40:46.564Z,-0.09
2022-12-29T13:42:48.140Z,-0.09
2022-12-29T13:43:50.177Z,-0.1
2022-12-29T13:44:54.907Z,-0.08
2022-12-29T13:47:00.063Z,-0.04
2022-12-29T13:49:06.194Z,-0.06
2022-12-29T13:50:07.996Z,-0.07
2022-12-29T13:51:06.357Z,-0.08
2022-12-29T13:56:22.103Z,-0.08
2022-12-29T14:04:36.802Z,-0.02
2022-12-29T14:05:36.914Z,-0.02
2022-12-29T14:06:37.832Z,-0.08
2022-12-29T14:07:39.713Z,-0.03
2022-12-29T14:08:38.048Z,-0.03
2022-12-29T14:11:42.080Z,-0.07
2022-12-29T14:12:44.943Z,-0.09
2022-12-29T14:13:45.863Z,-0.09
2022-12-29T14:14:43.212Z,-0.1
2022-12-29T14:15:46.980Z,-0.06
2022-12-29T14:16:44.486Z,-0.04
2022-12-29T14:17:45.509Z,-0.04
2022-12-29T14:18:45.705Z,-0.02
2022-12-29T14:19:46.625Z,-0.02
2022-12-29T14:23:03.025Z,-0.03
2022-12-29T14:23:55.357Z,-0.01
2022-12-29T14:24:56.183Z,-0.01
2022-12-29T14:26:57.934Z,0
2022-12-29T14:27:58.155Z,-0.01
2022-12-29T14:30:04.103Z,-0.02
2022-12-29T14:38:24.215Z,-0.02
2022-12-29T14:40:27.494Z,-0.06
2022-12-29T14:42:30.719Z,-0.04
2022-12-29T14:43:28.762Z,-0.01
2022-12-29T14:44:28.973Z,-0.02
2022-12-29T14:45:32.355Z,-0.04
2022-12-29T14:50:43.101Z,-0.05
2022-12-29T14:51:40.987Z,-0.03
2022-12-29T14:53:51.987Z,-0.04
2022-12-29T14:54:48.945Z,-0.07
2022-12-29T14:56:49.416Z,-0.03
2022-12-29T14:58:56.554Z,-0.02
2022-12-29T15:00:56.764Z,-0.06
2022-12-29T15:01:57.659Z,-0.06
2022-12-29T15:03:09.004Z,-0.05
2022-12-29T15:05:04.016Z,-0.06
2022-12-29T15:07:10.282Z,-0.05
2022-12-29T15:08:08.753Z,-0.03
2022-12-29T15:10:17.992Z,-0.02
2022-12-29T15:11:19.226Z,-0.03
2022-12-29T15:15:27.703Z,-0.06
2022-12-29T15:16:32.970Z,-0.05
2022-12-29T15:18:29.506Z,-0.08
2022-12-29T15:19:28.681Z,-0.08
2022-12-29T15:20:32.532Z,-0.09
2022-12-29T15:21:37.426Z,-0.05
2022-12-29T15:22:34.859Z,-0.06
2022-12-29T15:23:37.985Z,-0.1
2022-12-29T15:24:40.990Z,-0.1
2022-12-29T15:26:47.675Z,-0.1
2022-12-29T15:28:52.294Z,-0.14
2022-12-29T15:29:58.653Z,-0.13
2022-12-29T15:30:53.334Z,-0.11
2022-12-29T15:31:51.715Z,-0.09
2022-12-29T15:32:52.118Z,-0.08
2022-12-29T15:33:55.214Z,-0.1
2022-12-29T15:34:55.509Z,-0.12
2022-12-29T15:35:54.386Z,-0.15
2022-12-29T15:36:53.604Z,-0.15
2022-12-29T15:37:54.010Z,-0.1
2022-12-29T15:38:54.724Z,-0.12
2022-12-29T15:39:56.588Z,-0.13
2022-12-29T15:40:58.931Z,-0.12
2022-12-29T15:45:13.253Z,-0.15
2022-12-29T15:46:12.672Z,-0.13
2022-12-29T15:49:16.385Z,-0.15
2022-12-29T15:52:21.219Z,-0.16
2022-12-29T15:54:24.417Z,-0.16
2022-12-29T15:56:25.757Z,-0.15
2022-12-29T15:57:37.254Z,-0.16
2022-12-29T15:58:31.931Z,-0.13
2022-12-29T15:59:32.998Z,-0.14
2022-12-29T16:00:33.391Z,-0.13
2022-12-29T16:01:36.907Z,-0.13
2022-12-29T16:02:35.518Z,-0.15
2022-12-29T16:03:38.173Z,-0.12
2022-12-29T16:04:54.035Z,-0.09
2022-12-29T16:05:40.346Z,-0.09
2022-12-29T16:09:49.087Z,-0.13
2022-12-29T16:10:49.619Z,-0.13
2022-12-29T16:11:56.066Z,-0.13
2022-12-29T16:12:53.815Z,-0.1
2022-12-29T16:13:55.770Z,-0.08
2022-12-29T16:15:01.001Z,-0.09
2022-12-29T16:16:03.765Z,-0.16
2022-12-29T16:17:04.034Z,-0.13
2022-12-29T16:18:01.657Z,-0.12
2022-12-29T16:19:07.291Z,-0.1
2022-12-29T16:24:24.504Z,-0.02
2022-12-29T16:26:26.785Z,-0.11
2022-12-29T16:28:41.522Z,-0.11
2022-12-29T16:29:35.905Z,-0.08
2022-12-29T16:30:34.696Z,-0.05
2022-12-29T16:34:45.048Z,-0.08
2022-12-29T16:35:48.127Z,-0.08
2022-12-29T16:37:47.083Z,-0.01
2022-12-29T16:38:46.616Z,-0.04
2022-12-29T16:39:47.229Z,-0.02
2022-12-29T16:41:51.644Z,-0.05
2022-12-29T16:49:04.498Z,-0.03
2022-12-29T16:55:18.361Z,0.04
2022-12-29T16:56:22.661Z,0.04
2022-12-29T16:58:28.308Z,0.03
2022-12-29T16:59:31.911Z,0.03
2022-12-29T17:00:36.332Z,0.06
2022-12-29T17:01:40.496Z,0.09
2022-12-29T17:02:38.356Z,0.04
2022-12-29T17:03:47.378Z,0.03
2022-12-29T17:04:39.925Z,0.02
2022-12-29T17:05:40.438Z,0.01
2022-12-29T17:06:41.272Z,-0.03
2022-12-29T17:07:41.373Z,-0.01
2022-12-29T17:08:43.030Z,0.03
2022-12-29T17:09:42.204Z,0.03
2022-12-29T17:10:43.028Z,0.05
2022-12-29T17:11:42.318Z,0.05
2022-12-29T17:12:45.197Z,0.06
2022-12-29T17:13:43.086Z,0.05
2022-12-29T17:15:44.898Z,0.08
2022-12-29T17:16:45.323Z,0.04
2022-12-29T17:18:48.309Z,0.07
2022-12-29T17:20:50.170Z,0.05
2022-12-29T17:21:50.376Z,0.06
2022-12-29T17:22:51.715Z,0.08
2022-12-29T17:23:51.107Z,0.08
2022-12-29T17:25:55.154Z,0.08
2022-12-29T17:26:57.266Z,0.06
2022-12-29T17:28:56.669Z,0.03
2022-12-29T17:31:03.624Z,0.05
2022-12-29T17:32:02.735Z,0.03
2022-12-29T17:34:04.189Z,0.02
2022-12-29T17:35:05.318Z,-0.01
2022-12-29T17:36:05.517Z,0
2022-12-29T17:39:11.547Z,0.03
2022-12-29T17:40:19.469Z,0.02
2022-12-29T17:41:16.817Z,0.05
2022-12-29T17:42:18.775Z,0.06
2022-12-29T17:43:18.159Z,0.04
2022-12-29T17:44:20.419Z,0.04
2022-12-29T17:45:21.964Z,0.09
2022-12-29T17:46:19.663Z,0.1
2022-12-29T17:47:19.626Z,0.1
2022-12-29T17:48:20.757Z,0.11
2022-12-29T17:49:20.356Z,0.1
2022-12-29T17:50:23.543Z,0.08
2022-12-29T17:51:22.078Z,0.13
2022-12-29T17:52:21.601Z,0.09
2022-12-29T17:53:27.954Z,0.1
2022-12-29T17:54:26.564Z,0.09
2022-12-29T17:55:31.243Z,0.1
2022-12-29T17:56:27.256Z,0.11
2022-12-29T17:57:27.778Z,0.1
2022-12-29T17:58:30.142Z,0.07
2022-12-29T17:59:28.411Z,0.09
2022-12-29T18:00:30.970Z,0.1
2022-12-29T18:01:35.340Z,0.1
2022-12-29T18:02:34.009Z,0.09
2022-12-29T18:03:36.807Z,0.12
2022-12-29T18:04:34.380Z,0.13
2022-12-29T18:05:34.678Z,0.11
2022-12-29T18:06:35.220Z,0.12
2022-12-29T18:07:36.188Z,0.12
2022-12-29T18:08:36.651Z,0.1
2022-12-29T18:09:36.155Z,0.06
2022-12-29T18:10:36.473Z,0.1
2022-12-29T18:11:41.710Z,0.08
2022-12-29T18:12:42.412Z,0.11
2022-12-29T18:13:46.379Z,0.09
2022-12-29T18:14:44.380Z,0.12
2022-12-29T18:15:44.830Z,0.1
2022-12-29T18:16:45.206Z,0.12
2022-12-29T18:17:45.917Z,0.13
2022-12-29T18:18:46.464Z,0.13
2022-12-29T18:19:46.146Z,0.12
2022-12-29T18:20:48.005Z,0.12
2022-12-29T18:21:46.977Z,0.1
2022-12-29T18:22:47.196Z,0.11
2022-12-29T18:23:48.023Z,0.08
2022-12-29T18:24:47.818Z,0.05
2022-12-29T18:26:49.997Z,0.08
2022-12-29T18:27:50.509Z,0.09
2022-12-29T18:28:50.921Z,0.08
2022-12-29T18:29:51.034Z,0.13
2022-12-29T18:30:52.003Z,0.13
2022-12-29T18:31:51.801Z,0.12